Time;durP1;ratioP1;P1;durP2;ratioP2;P2;SDS_P1;SDS_P2;PMS_P1;PMS_P2;Temp;Humidity;BMP_temperature;BMP_pressure;BME280_temperature;BME280_humidity;BME280_pressure;Samples;Min_cycle;Max_cycle;Signal;HPM_P1;HPM_P2
2022/07/17 00:01:24;;;;;;;2.78;1.90;;;;;;;21.60;60.24;94976.94;5055233;28;20273;-74
2022/07/17 00:03:51;;;;;;;1.48;1.38;;;;;;;21.49;60.52;94976.09;5064021;28;20557;-74
2022/07/17 00:06:18;;;;;;;1.75;1.42;;;;;;;21.43;60.79;94983.19;5054627;28;20220;-73
2022/07/17 00:08:45;;;;;;;2.42;1.58;;;;;;;21.40;60.90;94983.97;5064698;28;20669;-73
2022/07/17 00:11:12;;;;;;;2.50;1.85;;;;;;;21.38;60.99;94986.31;5059510;28;20198;-73
2022/07/17 00:13:38;;;;;;;5.15;1.50;;;;;;;21.37;61.03;94990.25;5060680;28;20309;-73
2022/07/17 00:16:06;;;;;;;2.20;1.73;;;;;;;21.42;60.76;94992.63;5057690;28;20575;-74
2022/07/17 00:18:34;;;;;;;2.28;1.73;;;;;;;21.38;61.00;94989.06;5061173;28;20239;-74
2022/07/17 00:21:01;;;;;;;2.10;1.80;;;;;;;21.37;61.13;94995.75;5066355;28;20235;-74
2022/07/17 00:23:27;;;;;;;2.08;1.88;;;;;;;21.27;61.14;94997.28;5064551;28;20257;-76
2022/07/17 00:25:54;;;;;;;2.10;1.73;;;;;;;21.26;61.26;95001.22;5058982;28;20733;-76
2022/07/17 00:28:21;;;;;;;1.88;1.30;;;;;;;21.30;61.04;94995.75;5060418;28;20253;-72
2022/07/17 00:30:48;;;;;;;1.92;1.73;;;;;;;21.21;61.14;94999.63;5066465;28;20272;-74
2022/07/17 00:33:14;;;;;;;2.20;1.83;;;;;;;21.24;61.28;94998.06;5064831;28;20261;-72
2022/07/17 00:35:43;;;;;;;2.38;1.80;;;;;;;21.21;61.01;94994.09;5059112;28;20210;-74
2022/07/17 00:38:10;;;;;;;1.83;1.50;;;;;;;21.28;60.52;94996.91;5072188;28;20203;-72
2022/07/17 00:40:36;;;;;;;1.48;1.38;;;;;;;21.26;60.67;94991.00;5060084;28;20317;-75
2022/07/17 00:43:03;;;;;;;1.70;1.30;;;;;;;21.27;60.80;95000.84;5058710;28;20381;-74
2022/07/17 00:45:30;;;;;;;1.83;1.45;;;;;;;21.21;61.02;95010.63;5072352;28;20199;-74
2022/07/17 00:47:59;;;;;;;2.03;1.40;;;;;;;21.14;61.06;94988.53;5058734;28;20200;-73
2022/07/17 00:50:29;;;;;;;2.13;1.55;;;;;;;21.20;60.83;95000.00;5063882;28;20829;-73
2022/07/17 00:52:58;;;;;;;1.73;1.60;;;;;;;21.19;60.69;95007.47;5053873;28;20203;-75
2022/07/17 00:55:25;;;;;;;2.45;1.75;;;;;;;21.21;60.37;94998.81;5062524;28;20295;-73
2022/07/17 00:57:54;;;;;;;5.97;1.67;;;;;;;21.20;60.22;95003.53;5065270;28;20199;-73
2022/07/17 01:00:22;;;;;;;3.17;2.45;;;;;;;21.30;59.98;94998.50;5052142;28;20253;-73
2022/07/17 01:02:50;;;;;;;1.52;1.20;;;;;;;21.33;59.77;95011.47;5065215;28;20270;-73
2022/07/17 01:05:18;;;;;;;3.90;2.55;;;;;;;21.30;59.81;95006.75;5062559;28;20284;-74
2022/07/17 01:07:45;;;;;;;1.80;1.45;;;;;;;21.19;60.04;95013.00;5058384;28;20333;-72
2022/07/17 01:10:16;;;;;;;1.70;1.40;;;;;;;21.18;60.17;95021.63;5061673;28;20200;-74
2022/07/17 01:12:43;;;;;;;1.48;1.30;;;;;;;21.15;60.39;95014.91;5056217;28;20223;-73
2022/07/17 01:15:11;;;;;;;3.70;1.80;;;;;;;21.11;60.38;95016.06;5060663;28;20538;-74
2022/07/17 01:17:38;;;;;;;1.63;1.20;;;;;;;21.06;60.71;95014.47;5064821;28;20200;-74
2022/07/17 01:20:07;;;;;;;1.52;1.20;;;;;;;21.03;60.32;95020.75;5063207;28;20700;-74
2022/07/17 01:22:41;;;;;;;1.80;1.50;;;;;;;20.93;60.81;95013.19;5058077;28;20295;-74
2022/07/17 01:25:09;;;;;;;2.47;1.80;;;;;;;20.85;61.17;95020.66;5057598;28;20819;-75
2022/07/17 01:27:36;;;;;;;1.60;1.30;;;;;;;20.76;61.62;95019.41;5058004;28;20199;-74
2022/07/17 01:30:04;;;;;;;1.98;1.38;;;;;;;20.65;61.91;95021.28;5057673;28;20203;-73
2022/07/17 01:32:34;;;;;;;2.40;1.58;;;;;;;20.61;61.46;95015.75;5064240;28;20578;-73
2022/07/17 01:35:02;;;;;;;2.35;1.83;;;;;;;20.53;62.09;95014.91;5065015;28;20199;-73
2022/07/17 01:37:29;;;;;;;2.40;1.65;;;;;;;20.50;62.25;95012.13;5058830;28;20753;-75
2022/07/17 01:39:57;;;;;;;2.88;1.67;;;;;;;20.50;61.76;95018.41;5057208;28;20227;-74
2022/07/17 01:42:25;;;;;;;2.45;1.20;;;;;;;20.45;61.58;95013.28;5062313;28;20310;-75
2022/07/17 01:44:53;;;;;;;1.88;1.42;;;;;;;20.45;61.80;95021.53;5066683;28;20214;-72
2022/07/17 01:47:20;;;;;;;2.88;1.73;;;;;;;20.39;62.01;95020.28;5061245;28;20208;-73
2022/07/17 01:49:48;;;;;;;5.07;1.10;;;;;;;20.38;62.30;95018.72;5053892;28;20272;-73
2022/07/17 01:52:15;;;;;;;2.00;1.50;;;;;;;20.46;61.89;95009.34;5060712;28;20219;-74
2022/07/17 01:54:43;;;;;;;2.58;1.70;;;;;;;20.52;61.57;95013.31;5063832;28;20212;-74
2022/07/17 01:57:12;;;;;;;1.98;1.23;;;;;;;20.69;62.11;95013.84;5060837;28;20616;-74
2022/07/17 01:59:39;;;;;;;2.80;1.98;;;;;;;20.73;62.74;95025.66;5057390;28;20373;-72
2022/07/17 02:02:07;;;;;;;1.90;1.48;;;;;;;20.52;63.13;95023.53;5059921;28;20207;-72
2022/07/17 02:04:35;;;;;;;2.25;1.98;;;;;;;20.49;61.88;95019.59;5063996;28;20227;-73
2022/07/17 02:07:02;;;;;;;1.80;1.55;;;;;;;20.40;62.01;95019.13;5050799;28;20207;-73
2022/07/17 02:09:29;;;;;;;2.75;1.48;;;;;;;20.22;62.91;95020.91;5063520;28;20196;-72
2022/07/17 02:11:56;;;;;;;1.70;1.30;;;;;;;20.12;63.51;95021.59;5050464;28;20227;-73
2022/07/17 02:14:24;;;;;;;1.65;1.35;;;;;;;20.08;63.71;95021.56;5063853;28;20555;-73
2022/07/17 02:16:51;;;;;;;1.58;1.33;;;;;;;20.09;63.64;95020.38;5062738;28;20199;-73
2022/07/17 02:19:18;;;;;;;2.15;1.65;;;;;;;20.02;63.64;95016.78;5057321;28;20206;-73
2022/07/17 02:21:45;;;;;;;1.80;1.33;;;;;;;20.05;63.55;95021.53;5057772;28;20775;-73
2022/07/17 02:24:12;;;;;;;2.10;1.42;;;;;;;19.98;63.86;95015.94;5063232;28;20603;-73
2022/07/17 02:26:39;;;;;;;3.05;1.65;;;;;;;19.95;63.96;95013.97;5063183;28;20475;-72
2022/07/17 02:29:07;;;;;;;2.10;1.67;;;;;;;19.98;64.18;95026.94;5057287;28;20207;-73
2022/07/17 02:31:35;;;;;;;3.03;1.90;;;;;;;19.94;63.85;95010.44;5057273;28;20265;-73
2022/07/17 02:34:02;;;;;;;2.05;1.30;;;;;;;19.84;63.89;95020.13;5063008;28;20253;-73
2022/07/17 02:36:29;;;;;;;2.15;1.55;;;;;;;19.85;63.49;95027.22;5050601;28;20257;-73
2022/07/17 02:38:56;;;;;;;3.15;1.58;;;;;;;19.78;64.36;95029.91;5056996;28;20199;-73
2022/07/17 02:41:23;;;;;;;1.60;1.50;;;;;;;19.77;64.13;95017.31;5056893;28;20243;-73
2022/07/17 02:43:49;;;;;;;1.75;1.42;;;;;;;19.77;64.12;95022.03;5062446;28;20198;-73
2022/07/17 02:46:16;;;;;;;2.55;1.42;;;;;;;19.78;64.00;95024.41;5070123;28;20199;-73
2022/07/17 02:48:44;;;;;;;1.88;1.50;;;;;;;19.69;64.21;95026.66;5057270;28;20597;-73
2022/07/17 02:51:11;;;;;;;2.53;2.10;;;;;;;19.58;64.23;95035.94;5056567;28;20207;-73
2022/07/17 02:53:38;;;;;;;2.38;1.50;;;;;;;19.51;65.07;95031.16;5062261;28;20658;-73
2022/07/17 02:56:05;;;;;;;1.35;1.10;;;;;;;19.31;66.15;95040.69;5062908;28;20284;-73
2022/07/17 02:58:33;;;;;;;2.78;1.55;;;;;;;19.25;65.86;95050.44;5057562;28;20194;-73
2022/07/17 03:00:59;;;;;;;2.05;1.55;;;;;;;19.31;65.51;95049.72;5055977;28;20901;-73
2022/07/17 03:03:26;;;;;;;3.55;1.83;;;;;;;19.23;65.19;95052.75;5061214;28;20297;-73
2022/07/17 03:05:55;;;;;;;2.42;1.75;;;;;;;19.24;65.80;95046.09;5063212;28;20608;-73
2022/07/17 03:08:22;;;;;;;2.30;1.77;;;;;;;19.27;65.80;95053.59;5058036;28;20665;-73
2022/07/17 03:10:48;;;;;;;3.20;1.70;;;;;;;19.35;65.78;95058.00;5056567;28;20227;-73
2022/07/17 03:13:15;;;;;;;2.80;1.73;;;;;;;19.30;65.78;95053.63;5060917;28;20261;-73
2022/07/17 03:15:42;;;;;;;2.47;1.67;;;;;;;19.50;65.05;95051.56;5063631;28;20264;-73
2022/07/17 03:18:09;;;;;;;2.45;1.90;;;;;;;20.13;63.61;95058.94;5058508;28;20206;-73
2022/07/17 03:20:35;;;;;;;2.42;1.70;;;;;;;20.52;61.27;95067.56;5058370;28;20774;-73
2022/07/17 03:23:04;;;;;;;6.03;1.90;;;;;;;21.15;60.00;95061.75;5065476;28;20196;-73
2022/07/17 03:25:30;;;;;;;6.45;1.80;;;;;;;21.90;57.85;95057.41;5066566;28;20292;-73
2022/07/17 03:27:58;;;;;;;1.30;1.20;;;;;;;22.53;56.07;95052.44;5062824;28;20209;-73
2022/07/17 03:30:24;;;;;;;4.85;1.60;;;;;;;22.95;54.44;95055.22;5059513;28;20562;-73
2022/07/17 03:32:51;;;;;;;1.67;1.45;;;;;;;23.72;52.67;95059.00;5064770;28;20727;-73
2022/07/17 03:35:18;;;;;;;2.42;1.88;;;;;;;24.28;51.53;95061.91;5067160;28;20195;-73
2022/07/17 03:37:45;;;;;;;1.80;1.42;;;;;;;24.91;49.58;95055.09;5063988;28;20603;-73
2022/07/17 03:40:13;;;;;;;5.68;1.77;;;;;;;25.22;48.47;95052.47;5069507;28;20322;-73
2022/07/17 03:42:40;;;;;;;2.45;2.10;;;;;;;25.61;47.06;95057.63;5064057;28;20202;-73
2022/07/17 03:45:08;;;;;;;2.70;1.60;;;;;;;25.98;45.85;95065.13;5060254;28;20654;-73
2022/07/17 03:47:35;;;;;;;2.83;2.25;;;;;;;26.17;45.64;95068.03;5062160;28;20292;-73
2022/07/17 03:50:02;;;;;;;3.85;2.50;;;;;;;26.38;44.33;95066.19;5066378;28;20207;-73
2022/07/17 03:52:29;;;;;;;2.72;2.30;;;;;;;26.80;44.25;95057.22;5064659;28;20198;-73
2022/07/17 03:54:55;;;;;;;3.20;2.47;;;;;;;27.41;43.26;95059.00;5055119;28;20663;-73
2022/07/17 03:57:24;;;;;;;3.15;2.08;;;;;;;27.82;41.96;95067.00;5064143;28;20216;-73
2022/07/17 03:59:50;;;;;;;2.88;2.30;;;;;;;28.03;38.89;95072.13;5058584;28;20203;-73
2022/07/17 04:02:17;;;;;;;2.47;2.08;;;;;;;28.51;39.77;95073.50;5059801;28;20254;-73
2022/07/17 04:04:44;;;;;;;3.63;2.50;;;;;;;27.87;39.77;95077.63;5065952;28;20277;-73
2022/07/17 04:07:26;;;;;;;3.15;2.33;;;;;;;28.32;39.33;95082.69;5064931;28;20241;-73
2022/07/17 04:09:54;;;;;;;3.75;2.50;;;;;;;29.32;38.24;95087.53;5060280;28;20197;-73
2022/07/17 04:12:20;;;;;;;2.60;2.40;;;;;;;29.31;38.09;95083.16;5059829;28;20230;-74
2022/07/17 04:14:49;;;;;;;2.50;2.22;;;;;;;28.62;39.69;95094.34;5064725;28;20209;-73
2022/07/17 04:17:16;;;;;;;3.20;2.28;;;;;;;28.32;39.73;95091.06;5066275;28;20203;-74
2022/07/17 04:19:43;;;;;;;3.75;2.53;;;;;;;28.53;40.28;95096.97;5052087;28;20203;-74
2022/07/17 04:22:10;;;;;;;2.70;2.38;;;;;;;29.60;38.75;95094.41;5053810;28;20242;-74
2022/07/17 04:24:36;;;;;;;3.60;2.20;;;;;;;30.29;37.91;95098.50;5063744;28;20616;-74
2022/07/17 04:27:04;;;;;;;6.20;2.40;;;;;;;31.07;36.03;95096.09;5067281;28;20581;-74
2022/07/17 04:29:30;;;;;;;3.38;2.60;;;;;;;31.73;35.22;95094.31;5063902;28;20203;-73
2022/07/17 04:31:59;;;;;;;4.63;2.38;;;;;;;31.89;32.17;95092.59;5053118;28;20207;-73
2022/07/17 04:34:25;;;;;;;2.78;2.10;;;;;;;32.27;34.33;95092.44;5063113;28;20199;-73
2022/07/17 04:36:52;;;;;;;5.10;2.30;;;;;;;32.11;34.49;95090.59;5068679;28;20609;-73
2022/07/17 04:39:19;;;;;;;2.60;2.30;;;;;;;32.52;35.20;95094.31;5062345;28;20204;-73
2022/07/17 04:41:46;;;;;;;3.33;1.90;;;;;;;32.46;34.89;95105.34;5065560;28;20231;-74
2022/07/17 04:44:13;;;;;;;3.30;1.98;;;;;;;32.40;35.21;95105.13;5062838;28;20210;-74
2022/07/17 04:46:40;;;;;;;2.28;2.08;;;;;;;31.15;36.45;95118.31;5085717;28;20199;-73
2022/07/17 04:49:08;;;;;;;4.10;2.20;;;;;;;30.79;36.30;95116.59;5060832;28;20667;-74
2022/07/17 04:51:35;;;;;;;2.53;2.05;;;;;;;30.99;35.16;95121.97;5065715;28;20204;-74
2022/07/17 04:54:02;;;;;;;2.00;1.80;;;;;;;31.23;34.32;95108.44;5063438;28;20199;-74
2022/07/17 04:56:29;;;;;;;4.32;1.92;;;;;;;30.75;31.45;95118.72;5059055;28;20220;-74
2022/07/17 04:58:55;;;;;;;1.85;1.60;;;;;;;29.82;31.72;95114.16;5060091;28;20613;-74
2022/07/17 05:01:22;;;;;;;2.33;1.92;;;;;;;30.80;29.98;95131.38;5065326;28;20648;-74
2022/07/17 05:03:50;;;;;;;1.90;1.60;;;;;;;31.37;30.17;95135.97;5051493;28;20265;-74
2022/07/17 05:06:18;;;;;;;2.22;1.65;;;;;;;32.60;29.12;95123.66;5057440;28;20199;-74
2022/07/17 05:08:45;;;;;;;3.13;1.85;;;;;;;33.46;27.76;95127.50;5059721;28;20200;-74
2022/07/17 05:11:11;;;;;;;2.63;1.80;;;;;;;30.70;31.00;95150.06;5065079;28;20294;-72
2022/07/17 05:13:38;;;;;;;2.13;1.83;;;;;;;31.88;30.10;95135.88;5063643;28;20663;-74
2022/07/17 05:16:05;;;;;;;1.73;1.55;;;;;;;33.38;28.47;95143.09;5057805;28;20202;-74
2022/07/17 05:18:32;;;;;;;2.05;1.85;;;;;;;31.32;28.59;95150.53;5058503;28;20211;-74
2022/07/17 05:20:59;;;;;;;3.80;2.00;;;;;;;31.37;28.91;95135.97;5064891;28;20231;-74
2022/07/17 05:23:27;;;;;;;4.75;1.70;;;;;;;33.09;27.19;95138.59;5064200;28;20203;-75
2022/07/17 05:25:54;;;;;;;3.50;1.70;;;;;;;34.18;26.42;95137.28;5057386;28;20249;-73
2022/07/17 05:28:21;;;;;;;1.65;1.55;;;;;;;35.28;25.34;95130.22;5058232;28;20204;-73
2022/07/17 05:30:47;;;;;;;2.45;2.03;;;;;;;35.02;25.71;95143.13;5057478;28;20215;-73
2022/07/17 05:33:14;;;;;;;3.55;1.70;;;;;;;34.68;25.16;95135.06;5058146;28;20273;-73
2022/07/17 05:35:41;;;;;;;2.65;1.75;;;;;;;34.70;24.87;95135.41;5057324;28;20215;-73
2022/07/17 05:38:08;;;;;;;1.80;1.63;;;;;;;34.14;25.45;95136.69;5071117;28;20203;-74
2022/07/17 05:40:36;;;;;;;2.35;2.03;;;;;;;35.00;25.37;95145.63;5057718;28;20198;-72
2022/07/17 05:43:03;;;;;;;3.22;1.92;;;;;;;34.76;25.14;95141.94;5056807;28;20200;-73
2022/07/17 05:45:29;;;;;;;3.40;1.80;;;;;;;35.59;24.31;95140.41;5071046;28;20191;-75
2022/07/17 05:47:56;;;;;;;2.17;1.50;;;;;;;36.10;23.93;95140.22;5057580;28;20207;-73
2022/07/17 05:50:23;;;;;;;1.83;1.60;;;;;;;36.42;22.14;95134.97;5063805;28;20207;-72
2022/07/17 05:52:50;;;;;;;3.13;2.03;;;;;;;32.95;26.36;95150.38;5064241;28;20244;-73
2022/07/17 05:55:19;;;;;;;3.95;1.98;;;;;;;32.34;27.76;95145.47;5050951;28;20256;-73
2022/07/17 05:57:47;;;;;;;4.55;2.00;;;;;;;32.50;27.38;95153.69;5064366;28;20211;-73
2022/07/17 06:00:14;;;;;;;2.33;1.80;;;;;;;33.22;26.73;95144.09;5058445;28;20558;-73
2022/07/17 06:02:41;;;;;;;2.53;1.70;;;;;;;34.35;26.00;95138.56;5056500;28;20322;-73
2022/07/17 06:05:11;;;;;;;3.40;2.00;;;;;;;33.21;26.08;95144.56;5062013;28;20234;-72
2022/07/17 06:07:38;;;;;;;2.85;2.10;;;;;;;32.00;27.62;95161.06;5064111;28;20252;-73
2022/07/17 06:10:06;;;;;;;2.08;1.80;;;;;;;33.12;27.18;95157.31;5059860;28;20219;-76
2022/07/17 06:12:33;;;;;;;2.53;1.70;;;;;;;33.73;26.07;95152.09;5056921;28;20280;-73
2022/07/17 06:15:01;;;;;;;3.88;2.75;;;;;;;34.62;25.07;95142.59;5061459;28;20225;-73
2022/07/17 06:17:28;;;;;;;2.15;1.75;;;;;;;34.54;25.83;95154.19;5051053;28;20203;-74
2022/07/17 06:19:55;;;;;;;2.05;1.80;;;;;;;34.17;25.47;95158.22;5060306;28;20202;-75
2022/07/17 06:22:22;;;;;;;2.10;1.80;;;;;;;33.98;26.74;95162.28;5056734;28;20285;-70
2022/07/17 06:24:49;;;;;;;2.20;1.70;;;;;;;34.24;26.40;95152.28;5059869;28;20199;-71
2022/07/17 06:27:16;;;;;;;2.15;1.90;;;;;;;33.72;26.41;95156.91;5063573;28;20196;-71
2022/07/17 06:29:42;;;;;;;2.50;1.90;;;;;;;33.14;28.13;95157.66;5049859;28;20208;-75
2022/07/17 06:32:11;;;;;;;2.42;1.92;;;;;;;33.89;26.55;95160.25;5053547;28;20297;-74
2022/07/17 06:34:37;;;;;;;2.40;1.98;;;;;;;34.06;25.61;95147.44;5059048;28;20273;-73
2022/07/17 06:37:04;;;;;;;1.95;1.75;;;;;;;34.55;25.53;95152.94;5066296;28;20203;-72
2022/07/17 06:39:31;;;;;;;2.40;1.90;;;;;;;33.88;26.03;95162.28;5069182;28;20670;-72
2022/07/17 06:41:58;;;;;;;2.78;1.70;;;;;;;32.66;28.52;95161.91;5050945;28;20620;-73
2022/07/17 06:44:25;;;;;;;2.58;2.28;;;;;;;31.70;28.88;95165.31;5056670;28;20444;-71
2022/07/17 06:46:51;;;;;;;4.20;1.80;;;;;;;33.93;26.36;95148.84;5063895;28;20261;-71
2022/07/17 06:49:19;;;;;;;2.92;2.00;;;;;;;35.53;24.87;95142.31;5061283;28;20206;-72
2022/07/17 06:51:47;;;;;;;4.65;2.33;;;;;;;33.98;26.57;95151.03;5056454;28;20210;-72
2022/07/17 06:54:14;;;;;;;2.17;1.73;;;;;;;32.04;28.61;95146.91;5057529;28;20235;-72
2022/07/17 06:56:41;;;;;;;2.53;1.98;;;;;;;31.28;29.34;95169.47;5067207;28;20257;-76
2022/07/17 06:59:08;;;;;;;2.08;1.88;;;;;;;31.40;29.34;95168.69;5066799;28;20206;-71
2022/07/17 07:01:35;;;;;;;2.92;2.20;;;;;;;32.93;27.46;95158.50;5060110;28;20680;-71
2022/07/17 07:04:02;;;;;;;2.70;1.90;;;;;;;31.22;29.69;95168.47;5061614;28;20542;-72
2022/07/17 07:06:31;;;;;;;3.75;2.13;;;;;;;30.71;31.34;95174.00;5067250;28;20231;-71
2022/07/17 07:08:58;;;;;;;4.60;2.42;;;;;;;30.93;30.82;95179.72;5066826;28;20291;-72
2022/07/17 07:11:25;;;;;;;2.85;2.03;;;;;;;30.72;30.28;95181.97;5060544;28;20607;-73
2022/07/17 07:13:52;;;;;;;2.42;2.10;;;;;;;32.25;28.56;95171.44;5060004;28;20261;-72
2022/07/17 07:16:18;;;;;;;3.17;2.25;;;;;;;31.76;29.92;95179.50;5053511;28;20258;-72
2022/07/17 07:18:46;;;;;;;2.13;1.88;;;;;;;29.73;31.60;95178.25;5053602;28;20577;-71
2022/07/17 07:21:14;;;;;;;3.50;2.45;;;;;;;30.52;31.14;95181.31;5053257;28;20203;-72
2022/07/17 07:23:42;;;;;;;2.75;1.92;;;;;;;29.81;32.22;95179.63;5053526;28;20195;-72
2022/07/17 07:26:09;;;;;;;2.33;2.10;;;;;;;29.65;32.41;95184.06;5051406;28;20234;-73
2022/07/17 07:28:36;;;;;;;3.45;2.00;;;;;;;31.35;29.88;95172.03;5052554;28;20210;-74
2022/07/17 07:31:03;;;;;;;2.00;1.85;;;;;;;32.23;29.00;95168.31;5060976;28;20674;-74
2022/07/17 07:33:30;;;;;;;5.60;2.35;;;;;;;31.14;30.94;95183.94;5066502;28;20727;-75
2022/07/17 07:35:56;;;;;;;2.03;1.75;;;;;;;32.54;29.17;95173.19;5072134;28;20199;-75
2022/07/17 07:38:23;;;;;;;6.00;2.17;;;;;;;32.79;28.93;95182.28;5070474;28;20248;-74
2022/07/17 07:40:52;;;;;;;2.67;2.00;;;;;;;31.05;30.31;95182.53;5062145;28;20210;-76
2022/07/17 07:43:18;;;;;;;3.17;2.10;;;;;;;29.88;31.58;95185.06;5059471;28;20227;-73
2022/07/17 07:45:45;;;;;;;6.13;2.20;;;;;;;31.40;29.97;95174.28;5062792;28;20233;-75
2022/07/17 07:48:12;;;;;;;2.58;1.83;;;;;;;33.02;27.87;95172.56;5065873;28;20203;-76
2022/07/17 07:50:39;;;;;;;2.70;2.10;;;;;;;33.48;27.88;95169.97;5053039;28;20268;-77
2022/07/17 07:53:06;;;;;;;2.97;2.13;;;;;;;34.13;27.80;95157.63;5066947;28;20219;-76
2022/07/17 07:55:32;;;;;;;2.53;1.77;;;;;;;33.76;28.12;95157.56;5063545;28;20205;-74
2022/07/17 07:58:04;;;;;;;3.85;2.53;;;;;;;32.02;28.89;95175.41;5059114;28;20199;-73
2022/07/17 08:00:31;;;;;;;2.58;2.15;;;;;;;31.13;29.92;95171.94;5060967;28;20307;-77
2022/07/17 08:02:58;;;;;;;3.20;2.10;;;;;;;31.73;29.22;95175.59;5065548;28;20235;-75
2022/07/17 08:05:25;;;;;;;2.80;2.50;;;;;;;31.68;30.27;95173.38;5064664;28;20211;-75
2022/07/17 08:07:52;;;;;;;2.33;2.00;;;;;;;31.67;29.27;95176.63;5052911;28;20246;-73
2022/07/17 08:10:19;;;;;;;2.47;1.73;;;;;;;30.20;30.16;95173.84;5063708;28;20198;-72
2022/07/17 08:12:46;;;;;;;2.40;2.00;;;;;;;30.39;30.57;95174.91;5053326;28;20200;-73
2022/07/17 08:15:18;;;;;;;3.13;2.63;;;;;;;31.99;29.40;95175.50;5064981;28;20263;-73
2022/07/17 08:17:46;;;;;;;3.53;2.65;;;;;;;30.77;30.30;95177.81;5058797;28;20604;-71
2022/07/17 08:20:14;;;;;;;3.45;2.10;;;;;;;29.82;31.51;95181.22;5059410;28;20294;-74
2022/07/17 08:22:42;;;;;;;2.50;1.90;;;;;;;30.28;30.53;95180.00;5067698;28;20717;-75
2022/07/17 08:25:09;;;;;;;4.43;2.00;;;;;;;31.42;28.84;95180.22;5071296;28;20235;-74
2022/07/17 08:27:41;;;;;;;3.25;2.22;;;;;;;32.06;29.04;95164.84;5059716;28;20203;-74
2022/07/17 08:30:11;;;;;;;2.55;1.80;;;;;;;31.62;29.61;95175.13;5059015;28;20471;-75
2022/07/17 08:32:40;;;;;;;2.83;2.10;;;;;;;32.25;27.95;95159.44;5063232;28;20234;-75
2022/07/17 08:35:08;;;;;;;4.18;1.80;;;;;;;31.57;30.54;95181.31;5065128;28;20207;-73
2022/07/17 08:37:44;;;;;;;2.05;1.80;;;;;;;30.30;30.73;95171.97;5061971;28;20205;-72
2022/07/17 08:40:17;;;;;;;2.63;2.30;;;;;;;29.26;32.16;95184.16;5059256;28;20201;-74
2022/07/17 08:42:44;;;;;;;3.33;1.83;;;;;;;29.12;33.14;95178.91;5060256;28;20388;-73
2022/07/17 08:45:11;;;;;;;2.78;2.03;;;;;;;30.20;31.45;95175.84;5064997;28;20196;-75
2022/07/17 08:47:39;;;;;;;4.28;2.00;;;;;;;29.54;30.60;95183.50;5063333;28;20211;-73
2022/07/17 08:50:10;;;;;;;2.00;1.90;;;;;;;30.33;30.63;95171.09;5058060;28;20203;-75
2022/07/17 08:52:38;;;;;;;2.35;1.98;;;;;;;31.14;29.69;95176.31;5058809;28;20333;-76
2022/07/17 08:55:08;;;;;;;3.22;2.30;;;;;;;29.87;31.32;95175.09;5064958;28;20204;-75
2022/07/17 08:57:39;;;;;;;3.38;2.30;;;;;;;29.74;31.53;95163.06;5065771;28;20199;-75
2022/07/17 09:00:07;;;;;;;2.20;1.95;;;;;;;29.40;31.95;95175.47;5058632;28;20310;-74
2022/07/17 09:02:35;;;;;;;3.72;2.30;;;;;;;29.30;32.90;95162.53;5057284;28;20282;-72
2022/07/17 09:05:04;;;;;;;2.13;1.92;;;;;;;29.12;32.83;95164.97;5059058;28;20238;-72
2022/07/17 09:07:31;;;;;;;2.83;1.85;;;;;;;28.67;32.16;95165.56;5056957;28;20246;-70
2022/07/17 09:09:58;;;;;;;3.17;2.00;;;;;;;28.64;32.66;95166.44;5062048;28;20314;-75
2022/07/17 09:12:27;;;;;;;2.83;2.25;;;;;;;29.11;32.39;95161.38;5062786;28;20211;-73
2022/07/17 09:14:54;;;;;;;2.40;1.92;;;;;;;29.85;31.59;95161.56;5060089;28;20206;-73
2022/07/17 09:17:22;;;;;;;2.38;1.90;;;;;;;28.89;31.65;95177.06;5057588;28;20204;-71
2022/07/17 09:19:49;;;;;;;2.95;2.10;;;;;;;29.11;32.23;95166.97;5062165;28;20203;-73
2022/07/17 09:22:21;;;;;;;3.42;2.33;;;;;;;29.15;32.29;95158.53;5064330;28;20226;-77
2022/07/17 09:24:51;;;;;;;3.03;2.15;;;;;;;28.64;33.32;95160.84;5061631;28;20203;-75
2022/07/17 09:27:31;;;;;;;2.72;2.15;;;;;;;28.89;33.62;95158.31;5053594;28;20207;-75
2022/07/17 09:30:00;;;;;;;4.47;2.30;;;;;;;28.22;35.34;95168.88;5064076;28;20688;-73
2022/07/17 09:32:29;;;;;;;5.05;2.70;;;;;;;28.45;34.79;95164.44;5057942;28;20732;-70
2022/07/17 09:34:57;;;;;;;2.42;1.85;;;;;;;29.04;35.45;95149.63;5057357;28;20273;-72
2022/07/17 09:37:27;;;;;;;2.92;2.13;;;;;;;29.96;32.77;95153.72;5070915;28;20252;-74
2022/07/17 09:39:54;;;;;;;3.72;2.30;;;;;;;30.51;30.58;95142.59;5069277;28;20249;-72
2022/07/17 09:42:26;;;;;;;3.00;1.90;;;;;;;30.99;30.56;95153.56;5056290;28;20237;-73
2022/07/17 09:45:01;;;;;;;2.35;2.15;;;;;;;30.96;31.42;95160.03;5063799;28;20261;-75
2022/07/17 09:47:31;;;;;;;2.78;2.08;;;;;;;30.90;30.96;95164.59;5060932;28;20198;-72
2022/07/17 09:49:59;;;;;;;2.00;1.80;;;;;;;29.87;30.63;95158.34;5057563;28;20256;-72
2022/07/17 09:52:29;;;;;;;2.97;2.10;;;;;;;29.90;31.23;95160.25;5059377;28;20199;-74
2022/07/17 09:54:57;;;;;;;3.88;2.13;;;;;;;30.67;29.90;95156.53;5056096;28;20203;-76
2022/07/17 09:57:26;;;;;;;1.73;1.63;;;;;;;30.54;29.50;95152.94;5058798;28;20210;-75
2022/07/17 09:59:55;;;;;;;2.83;2.13;;;;;;;29.51;31.28;95156.47;5064482;28;20289;-74
2022/07/17 10:02:23;;;;;;;4.93;2.38;;;;;;;29.66;31.56;95154.88;5062980;28;20222;-73
2022/07/17 10:04:49;;;;;;;2.28;2.00;;;;;;;30.27;31.02;95156.84;5057356;28;20298;-73
2022/07/17 10:07:16;;;;;;;2.03;1.83;;;;;;;30.68;30.12;95156.09;5057922;28;20208;-74
2022/07/17 10:09:45;;;;;;;1.88;1.67;;;;;;;29.66;30.79;95168.06;5063603;28;20253;-72
2022/07/17 10:12:12;;;;;;;3.85;1.95;;;;;;;28.81;31.62;95165.28;5064199;28;20615;-75
2022/07/17 10:14:41;;;;;;;3.47;1.95;;;;;;;28.86;33.48;95156.38;5056409;28;20210;-76
2022/07/17 10:17:08;;;;;;;2.17;1.98;;;;;;;29.42;32.15;95153.50;5056956;28;20204;-74
2022/07/17 10:19:46;;;;;;;2.70;2.03;;;;;;;29.78;31.26;95147.03;5063208;28;20299;-75
2022/07/17 10:22:13;;;;;;;1.90;1.70;;;;;;;29.48;32.29;95151.75;5064154;28;20197;-74
2022/07/17 10:24:49;;;;;;;3.33;1.73;;;;;;;28.97;33.49;95151.34;5059831;28;20264;-73
2022/07/17 10:27:20;;;;;;;2.35;1.92;;;;;;;28.84;33.08;95146.88;5057166;28;20235;-73
2022/07/17 10:29:48;;;;;;;2.42;1.90;;;;;;;28.80;31.99;95141.41;5058811;28;20265;-75
2022/07/17 10:32:17;;;;;;;1.88;1.70;;;;;;;29.21;32.72;95138.03;5063778;28;20295;-73
2022/07/17 10:34:45;;;;;;;2.00;1.80;;;;;;;29.20;31.57;95135.69;5062028;28;20195;-76
2022/07/17 10:37:19;;;;;;;2.58;2.33;;;;;;;29.51;32.25;95120.19;5057154;28;20195;-73
2022/07/17 10:39:59;;;;;;;2.13;1.88;;;;;;;29.57;32.12;95129.56;5056353;28;20208;-75
2022/07/17 10:42:45;;;;;;;2.65;1.83;;;;;;;29.72;32.79;95132.78;5061391;28;20199;-74
2022/07/17 10:45:13;;;;;;;2.97;2.40;;;;;;;29.22;32.44;95134.03;5063281;28;20639;-71
2022/07/17 10:47:49;;;;;;;2.88;1.90;;;;;;;29.12;32.94;95134.28;5050045;28;20261;-75
2022/07/17 10:50:18;;;;;;;2.47;2.28;;;;;;;29.54;31.88;95132.47;5056984;28;20670;-74
2022/07/17 10:52:44;;;;;;;2.25;1.83;;;;;;;30.24;32.76;95129.78;5056680;28;20208;-74
2022/07/17 10:55:22;;;;;;;2.53;1.88;;;;;;;29.61;32.20;95127.50;5062991;28;20249;-75
2022/07/17 10:57:49;;;;;;;2.20;2.00;;;;;;;29.34;31.55;95133.34;5064042;28;20264;-73
2022/07/17 11:00:17;;;;;;;2.42;2.15;;;;;;;29.09;32.90;95126.78;5050016;28;20239;-73
2022/07/17 11:02:45;;;;;;;1.90;1.73;;;;;;;29.31;32.23;95119.47;5052680;28;20277;-76
2022/07/17 11:05:13;;;;;;;2.42;2.20;;;;;;;28.77;33.33;95119.13;5060320;28;20670;-74
2022/07/17 11:07:50;;;;;;;2.00;1.80;;;;;;;28.84;32.56;95119.78;5063244;28;20285;-74
2022/07/17 11:10:17;;;;;;;2.20;2.00;;;;;;;29.07;32.98;95115.28;5049848;28;20192;-77
2022/07/17 11:12:45;;;;;;;2.13;1.75;;;;;;;28.61;32.92;95122.66;5063495;28;20211;-72
2022/07/17 11:15:13;;;;;;;2.70;2.03;;;;;;;28.85;33.21;95112.97;5061539;28;20613;-74
2022/07/17 11:17:45;;;;;;;2.67;1.95;;;;;;;28.88;32.89;95103.75;5055748;28;20245;-74
2022/07/17 11:20:12;;;;;;;2.50;1.90;;;;;;;28.92;33.24;95110.03;5056790;28;20234;-74
2022/07/17 11:22:39;;;;;;;2.88;2.15;;;;;;;29.19;32.88;95117.38;5063145;28;20207;-74
2022/07/17 11:25:07;;;;;;;2.10;1.90;;;;;;;28.89;32.74;95105.31;5062787;28;20207;-73
2022/07/17 11:27:35;;;;;;;2.25;1.83;;;;;;;29.13;33.51;95108.72;5050121;28;20257;-74
2022/07/17 11:30:05;;;;;;;3.63;1.92;;;;;;;29.66;31.91;95099.00;5049702;28;20203;-72
2022/07/17 11:32:36;;;;;;;2.10;1.80;;;;;;;30.08;31.86;95099.09;5057047;28;20210;-74
2022/07/17 11:35:15;;;;;;;3.17;1.85;;;;;;;30.20;32.42;95087.19;5055693;28;20251;-74
2022/07/17 11:37:42;;;;;;;5.63;1.92;;;;;;;30.82;31.14;95095.34;5059033;28;20565;-74